Time;durP1;ratioP1;P1;durP2;ratioP2;P2;SDS_P1;SDS_P2;PMS_P1;PMS_P2;Temp;Humidity;BMP_temperature;BMP_pressure;BME280_temperature;BME280_humidity;BME280_pressure;Samples;Min_cycle;Max_cycle;Signal;HPM_P1;HPM_P2
2022/01/20 00:00:18;;;;;;;;;29.25;27.50;;;;;10.38;66.40;102284.91;2095857;28;47618;-60
2022/01/20 00:01:54;;;;;;;;;32.80;32.00;;;;;10.36;66.88;102278.72;2078950;28;47368;-59
2022/01/20 00:02:47;;;;;;;;;28.00;27.60;;;;;10.37;66.67;102292.00;2087147;28;47808;-59
2022/01/20 00:03:47;;;;;;;;;26.60;25.20;;;;;10.37;66.67;102291.09;2095793;28;47649;-59
2022/01/20 00:05:09;;;;;;;;;33.25;30.50;;;;;10.37;66.53;102294.66;2095306;28;47805;-59
2022/01/20 00:07:34;;;;;;;;;30.20;30.00;;;;;10.36;66.67;102292.88;2095463;28;47367;-58
2022/01/20 00:08:53;;;;;;;;;27.60;26.60;;;;;10.35;66.52;102285.81;2095467;28;47274;-59
2022/01/20 00:23:07;;;;;;;;;24.60;24.60;;;;;10.36;66.66;102289.34;2095310;28;46643;-58
2022/01/20 00:26:05;;;;;;;;;26.40;26.40;;;;;10.30;66.41;102301.72;2074893;28;47875;-58
2022/01/20 00:27:10;;;;;;;;;32.40;28.60;;;;;10.28;66.44;102300.78;2087637;28;47203;-60
2022/01/20 00:28:15;;;;;;;;;21.40;21.40;;;;;10.29;66.40;102299.03;2093976;28;47245;-58
2022/01/20 00:29:23;;;;;;;;;32.00;30.40;;;;;10.28;66.54;102295.47;2089222;28;47469;-58
2022/01/20 00:31:38;;;;;;;;;30.00;28.00;;;;;10.28;66.25;102290.19;2093214;28;47350;-58
2022/01/20 00:32:53;;;;;;;;;27.00;26.60;;;;;10.27;66.56;102275.13;2096303;28;47331;-59
2022/01/20 00:34:18;;;;;;;;;29.00;27.60;;;;;10.27;66.56;102275.13;2096065;28;47334;-57
2022/01/20 00:35:25;;;;;;;;;29.60;25.60;;;;;10.27;66.38;102285.75;2087718;28;45936;-56
2022/01/20 00:38:04;;;;;;;;;32.40;30.20;;;;;10.26;66.21;102283.97;2078373;28;47391;-57
2022/01/20 00:39:05;;;;;;;;;29.75;27.50;;;;;10.25;66.23;102283.97;2078779;28;47048;-56
2022/01/20 00:40:06;;;;;;;;;29.50;29.50;;;;;10.25;66.41;102284.88;2086822;28;47955;-56
2022/01/20 00:41:12;;;;;;;;;30.20;29.60;;;;;10.24;66.40;102277.78;2081739;28;47382;-56
2022/01/20 00:42:14;;;;;;;;;28.40;25.60;;;;;10.24;66.35;102272.47;2078916;28;45160;-57
2022/01/20 00:43:15;;;;;;;;;27.80;26.80;;;;;10.24;66.31;102280.44;2078699;28;47678;-54
2022/01/20 00:44:15;;;;;;;;;33.00;28.50;;;;;10.23;66.38;102273.38;2096182;28;47320;-55
2022/01/20 00:45:16;;;;;;;;;33.00;29.50;;;;;10.23;66.52;102275.13;2096761;28;47153;-57
2022/01/20 00:46:17;;;;;;;;;28.75;28.75;;;;;10.23;66.39;102280.44;2096287;28;47148;-56
2022/01/20 00:47:19;;;;;;;;;30.50;29.25;;;;;10.23;66.50;102280.44;2096146;28;47525;-57
2022/01/20 00:48:21;;;;;;;;;30.80;28.00;;;;;10.21;66.07;102274.22;2096277;28;47210;-55
2022/01/20 00:49:21;;;;;;;;;26.40;25.40;;;;;10.21;66.19;102284.81;2096001;28;47453;-57
2022/01/20 00:50:21;;;;;;;;;28.00;26.00;;;;;10.21;66.33;102285.75;2092856;28;47428;-56
2022/01/20 00:51:23;;;;;;;;;25.75;25.00;;;;;10.21;66.23;102282.16;2096323;28;47415;-58
2022/01/20 00:52:24;;;;;;;;;29.00;29.00;;;;;10.20;66.19;102286.59;2096424;28;47970;-55
2022/01/20 00:53:24;;;;;;;;;29.75;28.50;;;;;10.21;65.92;102284.81;2096109;28;47308;-55
2022/01/20 00:54:25;;;;;;;;;26.50;25.75;;;;;10.21;66.16;102285.75;2089621;28;46085;-56
2022/01/20 00:55:25;;;;;;;;;26.25;25.00;;;;;10.21;66.17;102279.50;2090447;28;47270;-57
2022/01/20 00:56:25;;;;;;;;;28.75;27.75;;;;;10.20;66.03;102283.94;2095605;28;47701;-58
2022/01/20 00:57:26;;;;;;;;;25.00;24.25;;;;;10.20;66.14;102283.94;2096122;28;47161;-57
2022/01/20 00:58:27;;;;;;;;;25.00;24.25;;;;;10.21;65.99;102282.16;2096354;28;47108;-57
2022/01/20 00:59:29;;;;;;;;;27.50;24.75;;;;;10.20;66.06;102280.41;2095594;28;47427;-54
2022/01/20 01:00:30;;;;;;;;;24.60;24.40;;;;;10.20;65.98;102277.75;2093321;28;47863;-57
2022/01/20 01:01:31;;;;;;;;;25.50;22.50;;;;;10.20;66.22;102278.63;2095187;28;47496;-56
2022/01/20 01:02:33;;;;;;;;;25.75;25.00;;;;;10.20;66.17;102281.28;2089008;28;47378;-54
2022/01/20 01:03:34;;;;;;;;;23.80;23.20;;;;;10.21;66.03;102284.81;2086601;28;47834;-56
2022/01/20 01:04:35;;;;;;;;;21.00;19.75;;;;;10.19;65.78;102276.84;2086845;28;47431;-55
2022/01/20 01:05:43;;;;;;;;;28.80;27.20;;;;;10.19;66.09;102275.97;2086376;28;47736;-57
2022/01/20 01:07:57;;;;;;;;;26.80;25.80;;;;;10.19;65.71;102289.25;2086379;28;47203;-56
2022/01/20 01:08:57;;;;;;;;;24.20;24.20;;;;;10.19;65.69;102287.47;2091951;28;47379;-58
2022/01/20 01:09:57;;;;;;;;;26.25;26.00;;;;;10.18;65.58;102293.66;2088144;28;47776;-56
2022/01/20 01:10:58;;;;;;;;;25.50;21.50;;;;;10.18;65.68;102295.44;2087433;28;47869;-55
2022/01/20 01:12:02;;;;;;;;;20.25;18.75;;;;;10.17;65.59;102299.84;2095893;28;47358;-55
2022/01/20 01:13:08;;;;;;;;;17.20;17.20;;;;;10.17;65.40;102302.50;2096383;28;47501;-54
2022/01/20 01:14:09;;;;;;;;;24.40;21.00;;;;;10.17;65.67;102291.00;2095960;28;47760;-55
2022/01/20 01:15:16;;;;;;;;;21.25;20.75;;;;;10.17;65.48;102296.31;2096001;28;47031;-57
2022/01/20 01:16:20;;;;;;;;;23.20;21.00;;;;;10.15;65.18;102296.28;2095859;28;47341;-57
2022/01/20 01:22:14;;;;;;;;;25.25;21.00;;;;;10.11;65.14;102297.13;2087484;28;47701;-58
2022/01/20 01:23:14;;;;;;;;;23.80;20.60;;;;;10.11;65.40;102306.88;2094029;28;47959;-56
2022/01/20 01:24:15;;;;;;;;;22.50;21.00;;;;;10.10;65.22;102313.06;2096064;28;47039;-57
2022/01/20 01:25:15;;;;;;;;;20.50;19.75;;;;;10.10;65.31;102316.59;2096024;28;47303;-55
2022/01/20 01:26:18;;;;;;;;;24.00;20.50;;;;;10.09;65.12;102314.81;2095813;28;47693;-58
2022/01/20 01:27:20;;;;;;;;;21.00;19.20;;;;;10.08;65.46;102321.00;2096304;28;48199;-58
2022/01/20 01:28:24;;;;;;;;;19.60;18.80;;;;;10.08;65.22;102321.00;2096007;28;47301;-60
2022/01/20 01:29:56;;;;;;;;;20.20;19.60;;;;;10.07;65.08;102327.19;2095753;28;47516;-54
2022/01/20 01:31:51;;;;;;;;;17.80;17.80;;;;;10.07;65.37;102332.50;2095684;28;47657;-56
2022/01/20 01:32:54;;;;;;;;;17.25;17.00;;;;;10.06;65.13;102330.72;2095914;28;45542;-55
2022/01/20 01:34:00;;;;;;;;;20.60;20.20;;;;;10.06;65.18;102328.06;2095979;28;47847;-57
2022/01/20 01:35:01;;;;;;;;;19.60;18.20;;;;;10.05;65.27;102323.66;2095904;28;47757;-57
2022/01/20 01:36:04;;;;;;;;;19.00;18.40;;;;;10.05;65.02;102334.25;2096159;28;47514;-57
2022/01/20 01:37:07;;;;;;;;;18.00;18.00;;;;;10.05;65.18;102339.56;2095851;28;47671;-57
2022/01/20 01:39:09;;;;;;;;;20.50;20.25;;;;;10.05;65.12;102336.91;2095839;28;47156;-58
2022/01/20 01:40:12;;;;;;;;;17.75;16.50;;;;;10.03;65.04;102331.56;2095729;28;47680;-57
2022/01/20 01:41:17;;;;;;;;;16.80;16.00;;;;;10.02;65.04;102332.44;2090378;27;47143;-56
2022/01/20 01:42:24;;;;;;;;;20.80;20.20;;;;;10.02;65.15;102334.22;2087720;28;47759;-58
2022/01/20 01:43:26;;;;;;;;;15.60;15.20;;;;;10.01;65.09;102338.63;2087698;28;47715;-56
2022/01/20 01:44:30;;;;;;;;;13.60;13.20;;;;;10.01;65.03;102333.31;2087370;28;46871;-58
2022/01/20 01:45:36;;;;;;;;;19.40;18.80;;;;;10.00;64.90;102336.84;2087343;28;47805;-57
2022/01/20 01:46:38;;;;;;;;;16.40;14.80;;;;;9.99;65.15;102329.78;2087424;28;47534;-57
2022/01/20 01:47:38;;;;;;;;;19.00;18.40;;;;;9.99;64.83;102334.19;2087350;28;47004;-58
2022/01/20 01:48:41;;;;;;;;;18.50;18.50;;;;;9.98;64.99;102333.31;2087670;28;47127;-57
2022/01/20 01:49:41;;;;;;;;;22.40;19.00;;;;;9.98;65.11;102332.44;2088966;28;47279;-56
2022/01/20 01:50:41;;;;;;;;;18.00;15.75;;;;;9.97;64.90;102338.63;2091151;28;48085;-59
2022/01/20 01:51:42;;;;;;;;;17.25;17.25;;;;;9.96;65.12;102344.78;2094822;28;47960;-57
2022/01/20 01:52:43;;;;;;;;;19.50;17.75;;;;;9.96;65.02;102350.09;2093286;28;46291;-58
2022/01/20 01:53:43;;;;;;;;;18.50;18.50;;;;;9.95;64.83;102358.94;2094842;28;47383;-59
2022/01/20 01:54:44;;;;;;;;;16.25;16.25;;;;;9.93;64.86;102350.97;2095046;28;47203;-57
2022/01/20 01:55:44;;;;;;;;;16.50;16.00;;;;;9.93;64.91;102363.34;2094830;28;47649;-57
2022/01/20 01:56:47;;;;;;;;;19.25;18.75;;;;;9.92;65.09;102359.81;2094611;28;47139;-58
2022/01/20 01:57:48;;;;;;;;;18.40;16.80;;;;;9.92;64.65;102366.88;2094676;28;47636;-57
2022/01/20 01:58:49;;;;;;;;;18.40;18.40;;;;;9.91;64.62;102365.06;2094522;28;47854;-58
2022/01/20 01:59:50;;;;;;;;;18.00;18.00;;;;;9.90;64.99;102365.94;2096808;28;46892;-58
2022/01/20 02:00:51;;;;;;;;;18.20;17.60;;;;;9.90;64.65;102365.94;2092490;28;47386;-57
2022/01/20 02:01:51;;;;;;;;;16.50;15.00;;;;;9.89;64.92;102373.03;2095131;28;47244;-58
2022/01/20 02:02:52;;;;;;;;;15.00;14.25;;;;;9.88;64.91;102376.56;2096765;28;47277;-59
2022/01/20 02:04:08;;;;;;;;;16.25;13.75;;;;;9.88;64.77;102371.25;2096312;28;47929;-59
2022/01/20 02:05:12;;;;;;;;;20.20;16.60;;;;;9.87;64.74;102369.47;2086188;28;47319;-56
2022/01/20 02:08:49;;;;;;;;;15.60;15.60;;;;;9.84;64.76;102379.19;2086694;28;47549;-56
2022/01/20 02:19:16;;;;;;;;;19.80;17.40;;;;;9.77;64.62;102385.28;2086042;28;47185;-56
2022/01/20 02:20:17;;;;;;;;;17.80;14.20;;;;;9.76;64.50;102381.75;2091909;28;48256;-55
2022/01/20 02:21:17;;;;;;;;;14.50;14.50;;;;;9.74;64.23;102387.03;2094792;28;47181;-59
2022/01/20 02:22:18;;;;;;;;;15.75;15.50;;;;;9.73;64.45;102384.38;2094438;28;46946;-57
2022/01/20 02:23:18;;;;;;;;;17.25;16.00;;;;;9.71;64.59;102381.72;2095077;28;47488;-58
2022/01/20 02:24:19;;;;;;;;;12.25;11.75;;;;;9.71;64.56;102381.72;2094735;28;47208;-58
2022/01/20 02:25:24;;;;;;;;;14.75;14.00;;;;;9.70;64.30;102382.59;2095163;28;47267;-57
2022/01/20 02:26:24;;;;;;;;;15.80;14.00;;;;;9.70;64.45;102382.59;2094931;28;47193;-54
2022/01/20 02:27:25;;;;;;;;;15.00;12.75;;;;;9.69;64.49;102375.53;2094687;28;47209;-55
2022/01/20 02:28:27;;;;;;;;;10.25;9.75;;;;;9.69;64.02;102374.66;2094578;28;47229;-57
2022/01/20 02:29:27;;;;;;;;;13.20;10.80;;;;;9.68;64.38;102389.66;2094266;28;47457;-56
2022/01/20 02:30:29;;;;;;;;;16.25;14.50;;;;;9.67;64.29;102390.53;2094350;28;47264;-55
2022/01/20 02:31:30;;;;;;;;;12.60;11.80;;;;;9.67;64.20;102390.53;2089354;28;46152;-56
2022/01/20 02:32:30;;;;;;;;;11.40;11.40;;;;;9.67;64.44;102389.66;2086213;28;47045;-55
2022/01/20 02:33:32;;;;;;;;;15.50;15.50;;;;;9.67;64.19;102394.97;2085534;28;47339;-56
2022/01/20 02:34:32;;;;;;;;;13.80;13.80;;;;;9.66;64.11;102391.41;2086096;28;47713;-58
2022/01/20 02:35:36;;;;;;;;;12.00;12.00;;;;;9.66;64.17;102399.38;2085968;28;47655;-55
2022/01/20 02:36:38;;;;;;;;;15.00;14.00;;;;;9.65;63.86;102389.63;2086215;28;47899;-57
2022/01/20 02:37:39;;;;;;;;;11.20;9.00;;;;;9.65;64.18;102392.25;2085707;28;47350;-56
2022/01/20 02:44:51;;;;;;;;;14.50;13.75;;;;;9.63;64.18;102387.81;2094581;28;47044;-55
2022/01/20 02:44:53;;;;;;;;;14.60;14.60;;;;;9.61;64.30;102395.78;2093278;28;47505;-56
2022/01/20 02:45:54;;;;;;;;;14.80;12.60;;;;;9.60;64.13;102386.03;2094022;28;47734;-58
2022/01/20 02:46:54;;;;;;;;;11.60;11.60;;;;;9.59;63.95;102386.91;2094065;28;47581;-58
2022/01/20 02:47:55;;;;;;;;;13.50;13.25;;;;;9.60;64.25;102383.41;2094252;28;47186;-56
2022/01/20 02:48:56;;;;;;;;;12.75;11.75;;;;;9.60;64.02;102385.16;2094414;28;47366;-54
2022/01/20 02:49:57;;;;;;;;;15.60;13.00;;;;;9.59;63.76;102376.31;2093846;28;47107;-58
2022/01/20 02:50:57;;;;;;;;;13.00;13.00;;;;;9.59;63.93;102373.66;2092612;28;47736;-58
2022/01/20 02:51:58;;;;;;;;;12.00;11.50;;;;;9.58;63.85;102365.72;2095062;28;47280;-59
2022/01/20 02:52:58;;;;;;;;;14.00;13.25;;;;;9.57;63.56;102375.44;2092936;28;47691;-55
2022/01/20 02:53:59;;;;;;;;;11.50;11.25;;;;;9.56;63.69;102368.34;2093985;28;47050;-55
2022/01/20 02:54:59;;;;;;;;;14.75;13.50;;;;;9.54;63.51;102370.09;2095786;28;47629;-55
2022/01/20 02:55:59;;;;;;;;;14.50;14.50;;;;;9.55;63.52;102369.22;2095251;28;47051;-55
2022/01/20 02:57:01;;;;;;;;;12.25;9.75;;;;;9.54;63.92;102359.50;2096164;28;47486;-56
2022/01/20 02:58:02;;;;;;;;;14.40;12.80;;;;;9.54;63.75;102364.81;2104018;28;47752;-57
2022/01/20 02:59:02;;;;;;;;;15.00;14.00;;;;;9.53;63.82;102368.34;2091648;28;48099;-56
2022/01/20 03:00:06;;;;;;;;;12.50;10.25;;;;;9.52;63.44;102368.28;2088742;28;47572;-57
2022/01/20 03:01:06;;;;;;;;;13.00;12.20;;;;;9.52;63.65;102357.69;2094395;28;47587;-55
2022/01/20 03:02:09;;;;;;;;;12.50;11.00;;;;;9.51;63.48;102362.09;2095534;28;47523;-55
2022/01/20 03:03:09;;;;;;;;;6.60;6.60;;;;;9.50;63.57;102365.63;2095827;28;47569;-59
2022/01/20 03:04:11;;;;;;;;;11.00;9.25;;;;;9.50;63.46;102370.94;2096119;28;46671;-55
2022/01/20 03:05:11;;;;;;;;;8.00;8.00;;;;;9.50;63.42;102370.03;2097208;28;47956;-55
2022/01/20 03:06:12;;;;;;;;;8.00;8.00;;;;;9.49;63.39;102362.97;2097098;28;47503;-56
2022/01/20 03:07:12;;;;;;;;;12.25;10.50;;;;;9.49;63.40;102365.63;2097009;28;47015;-57
2022/01/20 03:08:13;;;;;;;;;10.50;10.50;;;;;9.48;63.41;102369.16;2097049;28;47348;-56
2022/01/20 03:09:13;;;;;;;;;12.00;8.25;;;;;9.47;63.25;102376.22;2097187;28;47671;-55
2022/01/20 03:10:14;;;;;;;;;10.75;10.75;;;;;9.47;63.33;102377.97;2094339;28;46805;-56
2022/01/20 03:11:14;;;;;;;;;11.25;11.25;;;;;9.46;63.48;102379.72;2088849;28;47393;-56
2022/01/20 03:12:15;;;;;;;;;9.50;8.00;;;;;9.45;63.13;102383.25;2079567;28;47320;-56
2022/01/20 03:13:15;;;;;;;;;7.75;7.00;;;;;9.44;63.11;102378.84;2079719;28;47675;-56
2022/01/20 03:14:17;;;;;;;;;9.00;9.00;;;;;9.43;63.35;102379.72;2088476;28;47226;-56
2022/01/20 03:15:18;;;;;;;;;9.40;9.00;;;;;9.41;63.03;102385.00;2088680;28;47373;-55
2022/01/20 03:16:18;;;;;;;;;11.00;11.00;;;;;9.41;63.08;102385.00;2088649;28;46860;-56
2022/01/20 03:17:18;;;;;;;;;8.75;6.75;;;;;9.42;62.99;102385.88;2088510;28;47157;-56
2022/01/20 03:18:19;;;;;;;;;10.50;9.25;;;;;9.39;63.05;102386.72;2088621;28;47257;-54
2022/01/20 03:19:19;;;;;;;;;9.00;9.00;;;;;9.40;63.11;102393.81;2088393;28;45332;-55
2022/01/20 03:20:20;;;;;;;;;9.67;9.67;;;;;9.40;63.17;102390.25;2094379;28;47589;-56
2022/01/20 03:21:20;;;;;;;;;9.75;9.75;;;;;9.39;63.12;102385.84;2096795;28;47242;-54
2022/01/20 03:22:21;;;;;;;;;8.50;8.50;;;;;9.37;62.97;102385.81;2097202;28;47389;-56
2022/01/20 03:23:21;;;;;;;;;6.25;6.25;;;;;9.37;63.03;102398.19;2096676;28;47206;-57
2022/01/20 03:24:21;;;;;;;;;10.00;9.67;;;;;9.36;62.91;102397.28;2097153;28;47229;-56
2022/01/20 03:25:22;;;;;;;;;10.50;9.75;;;;;9.36;63.09;102396.41;2096851;28;47264;-55
2022/01/20 03:26:22;;;;;;;;;12.50;11.00;;;;;9.35;63.03;102395.53;2097005;28;47662;-57
2022/01/20 03:27:23;;;;;;;;;10.67;10.67;;;;;9.34;63.01;102403.47;2097038;28;47156;-56
2022/01/20 03:28:24;;;;;;;;;11.00;10.00;;;;;9.34;63.16;102406.09;2096985;28;47377;-56
2022/01/20 03:29:24;;;;;;;;;12.50;11.00;;;;;9.34;62.90;102414.94;2096032;28;47217;-55
2022/01/20 03:30:26;;;;;;;;;11.00;9.25;;;;;9.33;62.81;102412.28;2096777;28;46994;-54
2022/01/20 03:31:27;;;;;;;;;10.25;9.25;;;;;9.32;63.25;102411.41;2091708;28;47329;-57
2022/01/20 03:32:28;;;;;;;;;10.20;8.20;;;;;9.32;63.03;102405.22;2088570;28;47258;-57
2022/01/20 03:33:29;;;;;;;;;10.50;7.75;;;;;9.32;63.03;102403.44;2088239;28;45949;-56
2022/01/20 03:34:29;;;;;;;;;14.00;8.00;;;;;9.31;62.78;102399.03;2088540;28;46781;-58
2022/01/20 03:35:30;;;;;;;;;8.00;8.00;;;;;9.31;62.89;102395.50;2088491;28;47553;-57
2022/01/20 03:36:30;;;;;;;;;11.33;8.33;;;;;9.29;62.86;102400.78;2088661;28;47483;-57
2022/01/20 03:37:31;;;;;;;;;8.50;8.50;;;;;9.29;62.83;102411.38;2088349;28;47322;-57
2022/01/20 03:38:31;;;;;;;;;13.25;9.75;;;;;9.27;62.62;102405.13;2088687;28;47863;-58
2022/01/20 03:39:32;;;;;;;;;11.00;11.00;;;;;9.26;62.86;102406.00;2088430;28;47113;-57
2022/01/20 03:40:32;;;;;;;;;12.00;9.33;;;;;9.27;62.82;102406.91;2095492;28;47158;-59
2022/01/20 03:41:33;;;;;;;;;9.00;8.00;;;;;9.25;62.58;102406.00;2088735;28;47376;-58
2022/01/20 03:42:33;;;;;;;;;7.67;7.67;;;;;9.24;62.76;102406.88;2088389;28;47299;-59
2022/01/20 03:43:34;;;;;;;;;8.00;8.00;;;;;9.23;62.49;102403.34;2087696;28;47208;-58
2022/01/20 03:44:35;;;;;;;;;9.75;8.75;;;;;9.22;62.73;102405.97;2088234;28;47766;-56
2022/01/20 03:45:35;;;;;;;;;10.75;10.25;;;;;9.21;62.58;102404.19;2088326;28;47490;-58
2022/01/20 03:46:36;;;;;;;;;8.00;8.00;;;;;9.21;62.86;102402.44;2088354;28;47378;-58
2022/01/20 03:47:36;;;;;;;;;9.00;9.00;;;;;9.20;62.60;102399.78;2088193;28;47797;-56
2022/01/20 03:48:48;;;;;;;;;7.67;7.67;;;;;9.21;62.75;102398.91;2088535;28;47192;-55
2022/01/20 03:50:05;;;;;;;;;8.25;7.25;;;;;9.20;62.74;102400.66;2088909;28;46330;-55
2022/01/20 03:51:06;;;;;;;;;13.00;9.25;;;;;9.19;62.57;102409.50;2095756;28;47351;-58
2022/01/20 03:52:07;;;;;;;;;12.33;10.33;;;;;9.18;62.46;102413.00;2096694;28;47598;-55
2022/01/20 03:53:07;;;;;;;;;9.25;7.75;;;;;9.17;62.60;102410.34;2096805;28;47805;-56
2022/01/20 03:54:08;;;;;;;;;10.00;10.00;;;;;9.16;62.72;102412.09;2096564;28;48011;-55
2022/01/20 03:55:08;;;;;;;;;10.67;10.67;;;;;9.15;62.42;102412.97;2096686;28;47312;-56
2022/01/20 03:56:09;;;;;;;;;8.67;7.67;;;;;9.14;62.57;102406.75;2096693;28;46033;-55
2022/01/20 03:57:10;;;;;;;;;8.75;8.50;;;;;9.16;62.46;102411.22;2096954;28;47645;-57
2022/01/20 03:58:10;;;;;;;;;10.67;10.67;;;;;9.13;62.62;102415.59;2096694;28;47118;-56
2022/01/20 03:59:10;;;;;;;;;12.00;11.00;;;;;9.13;62.57;102410.28;2096545;28;47105;-56
2022/01/20 04:00:11;;;;;;;;;11.33;9.33;;;;;9.12;62.45;102415.56;2093990;28;47573;-58
2022/01/20 04:01:14;;;;;;;;;9.00;7.67;;;;;9.12;62.88;102415.56;2095851;28;47907;-59
2022/01/20 04:02:15;;;;;;;;;13.00;10.25;;;;;9.10;62.50;102420.84;2096424;28;47664;-56
2022/01/20 04:03:16;;;;;;;;;7.67;6.33;;;;;9.10;62.18;102419.97;2097000;28;47054;-57
2022/01/20 04:04:16;;;;;;;;;8.00;8.00;;;;;9.09;62.48;102419.09;2096702;28;47398;-56
2022/01/20 04:05:17;;;;;;;;;10.33;9.33;;;;;9.08;62.22;102421.72;2096533;28;47278;-57
2022/01/20 04:06:17;;;;;;;;;8.67;8.67;;;;;9.08;62.62;102424.38;2099985;28;47151;-59
2022/01/20 04:07:18;;;;;;;;;9.67;8.00;;;;;9.09;62.55;102426.13;2095177;28;47657;-57
2022/01/20 04:08:18;;;;;;;;;8.00;6.33;;;;;9.06;62.62;102424.34;2088349;28;47084;-58
2022/01/20 04:09:19;;;;;;;;;9.33;8.00;;;;;9.06;62.22;102432.28;2079183;28;47279;-58
2022/01/20 04:10:19;;;;;;;;;39.75;34.75;;;;;9.06;62.59;102429.66;2080902;28;47327;-57
2022/01/20 04:11:22;;;;;;;;;27.50;23.25;;;;;9.04;62.51;102426.09;2079251;28;46147;-57
2022/01/20 04:12:23;;;;;;;;;21.20;20.60;;;;;9.06;62.40;102431.41;2079170;28;47368;-57
2022/01/20 04:13:28;;;;;;;;;14.00;13.67;;;;;9.06;62.45;102431.41;2088113;28;47201;-56
2022/01/20 04:14:31;;;;;;;;;11.50;11.25;;;;;9.05;62.67;102433.16;2087588;28;47278;-58
2022/01/20 04:15:38;;;;;;;;;10.50;9.50;;;;;9.06;62.54;102440.25;2086885;28;47681;-57
2022/01/20 04:17:01;;;;;;;;;13.50;10.25;;;;;9.06;62.34;102436.69;2088060;28;47491;-57
2022/01/20 04:18:02;;;;;;;;;12.00;11.75;;;;;9.03;62.33;102432.28;2094561;28;46374;-59
2022/01/20 04:19:10;;;;;;;;;14.25;11.25;;;;;9.02;62.24;102441.09;2096039;28;47044;-57
2022/01/20 04:20:10;;;;;;;;;10.75;10.75;;;;;9.02;62.42;102441.09;2096362;28;47737;-56
2022/01/20 04:21:11;;;;;;;;;12.33;12.33;;;;;9.02;62.31;102445.47;2095721;28;47244;-58
2022/01/20 04:22:11;;;;;;;;;7.33;7.33;;;;;9.02;62.39;102442.81;2087650;28;46701;-57
2022/01/20 04:23:12;;;;;;;;;10.33;9.33;;;;;9.01;62.39;102446.34;2093275;28;46740;-54
2022/01/20 04:24:13;;;;;;;;;7.33;6.67;;;;;9.01;62.26;102446.34;2095598;28;47406;-57
2022/01/20 04:25:13;;;;;;;;;8.67;8.67;;;;;9.01;62.26;102446.34;2095758;28;47245;-57
2022/01/20 04:26:14;;;;;;;;;6.33;6.33;;;;;9.02;62.33;102450.75;2095269;28;46644;-59
2022/01/20 04:27:14;;;;;;;;;13.33;11.00;;;;;9.01;62.37;102447.22;2096694;28;47739;-55
2022/01/20 04:28:15;;;;;;;;;11.00;11.00;;;;;9.01;62.33;102443.69;2094370;28;47462;-57
2022/01/20 04:29:16;;;;;;;;;7.67;7.67;;;;;9.01;62.29;102448.97;2087598;28;47539;-59
2022/01/20 04:30:16;;;;;;;;;12.25;11.00;;;;;9.01;62.28;102451.63;2090834;28;47771;-57
2022/01/20 04:31:17;;;;;;;;;10.00;8.33;;;;;9.00;62.59;102447.19;2089798;28;48104;-56
2022/01/20 04:32:17;;;;;;;;;7.33;7.00;;;;;8.99;62.39;102446.31;2086914;28;46405;-58
2022/01/20 04:33:18;;;;;;;;;13.25;10.00;;;;;8.99;62.42;102445.44;2086778;28;47328;-58
2022/01/20 04:34:18;;;;;;;;;11.33;10.00;;;;;8.98;62.43;102443.66;2086612;28;47430;-57
2022/01/20 04:35:20;;;;;;;;;8.67;8.67;;;;;8.97;62.45;102444.53;2086797;28;47587;-57
2022/01/20 04:36:20;;;;;;;;;8.25;8.25;;;;;8.96;62.50;102438.34;2086891;28;47510;-59
2022/01/20 04:37:21;;;;;;;;;9.00;9.00;;;;;8.95;62.39;102447.16;2086654;28;48155;-56
2022/01/20 04:38:22;;;;;;;;;10.33;9.67;;;;;8.94;62.47;102442.72;2086671;28;47202;-60
2022/01/20 04:39:26;;;;;;;;;10.33;9.33;;;;;8.94;62.37;102447.16;2086742;28;47125;-56
2022/01/20 04:40:26;;;;;;;;;8.00;7.75;;;;;8.94;62.48;102441.84;2090654;28;47882;-60
2022/01/20 04:41:29;;;;;;;;;11.33;9.00;;;;;8.93;62.17;102448.00;2088021;28;47184;-56
2022/01/20 04:42:33;;;;;;;;;10.50;8.50;;;;;8.94;62.17;102447.16;2086536;28;48849;-58
2022/01/20 04:43:34;;;;;;;;;10.25;8.50;;;;;8.94;62.09;102452.44;2087252;28;47680;-59
2022/01/20 04:44:50;;;;;;;;;13.00;12.00;;;;;8.93;62.13;102445.38;2086618;28;47852;-60
2022/01/20 04:46:03;;;;;;;;;12.75;9.00;;;;;8.92;62.04;102459.47;2087409;28;47739;-58
2022/01/20 04:48:42;;;;;;;;;10.75;9.75;;;;;8.91;62.19;102457.69;2088308;28;46949;-59
2022/01/20 04:57:37;;;;;;;;;11.50;9.75;;;;;8.88;62.35;102463.81;2095499;28;47118;-58
2022/01/20 04:58:37;;;;;;;;;8.00;8.00;;;;;8.87;62.30;102464.69;2095767;28;47749;-58
2022/01/20 04:59:37;;;;;;;;;10.33;10.33;;;;;8.87;62.32;102461.16;2094702;28;47448;-58
2022/01/20 05:00:38;;;;;;;;;8.67;7.00;;;;;8.85;62.27;102459.38;2091404;28;48004;-60
2022/01/20 05:01:44;;;;;;;;;9.00;8.50;;;;;8.86;62.13;102462.91;2095205;28;47189;-58
2022/01/20 05:02:45;;;;;;;;;9.20;9.20;;;;;8.85;62.18;102458.50;2085818;28;47376;-58
2022/01/20 05:03:46;;;;;;;;;11.75;8.00;;;;;8.85;62.37;102459.38;2086849;28;46834;-57
2022/01/20 05:04:46;;;;;;;;;12.00;9.00;;;;;8.85;62.37;102450.56;2088530;28;45846;-58
2022/01/20 05:05:46;;;;;;;;;10.00;9.00;;;;;8.84;62.19;102454.97;2092840;28;47451;-57
2022/01/20 05:06:48;;;;;;;;;9.75;9.75;;;;;8.84;62.29;102452.31;2095432;28;47708;-59
2022/01/20 05:07:48;;;;;;;;;8.20;7.80;;;;;8.84;62.33;102452.31;2092068;28;46099;-58
2022/01/20 05:08:51;;;;;;;;;9.00;7.00;;;;;8.84;62.26;102448.78;2092221;28;47441;-58
2022/01/20 05:09:54;;;;;;;;;8.20;8.20;;;;;8.83;62.19;102447.88;2096235;28;47303;-57
2022/01/20 05:10:55;;;;;;;;;14.40;12.20;;;;;8.83;62.35;102447.00;2096031;28;47236;-56
2022/01/20 05:12:06;;;;;;;;;8.75;8.75;;;;;8.82;62.26;102450.53;2096174;28;47138;-57
2022/01/20 05:13:11;;;;;;;;;6.80;5.80;;;;;8.83;62.24;102454.94;2094276;28;46571;-57
2022/01/20 05:14:12;;;;;;;;;10.40;10.40;;;;;8.82;62.27;102459.34;2087465;28;47762;-57
2022/01/20 05:15:12;;;;;;;;;8.00;8.00;;;;;8.81;62.04;102454.94;2087774;28;45375;-58
2022/01/20 05:16:13;;;;;;;;;10.75;6.50;;;;;8.81;62.27;102451.38;2088093;28;47403;-58
2022/01/20 05:17:13;;;;;;;;;10.00;10.00;;;;;8.81;62.18;102446.09;2087704;28;46934;-59
2022/01/20 05:18:14;;;;;;;;;11.00;9.50;;;;;8.81;62.24;102452.28;2089027;28;47627;-59
2022/01/20 05:19:14;;;;;;;;;9.25;9.25;;;;;8.80;62.13;102453.16;2091662;28;47650;-56
2022/01/20 05:20:15;;;;;;;;;12.50;11.75;;;;;8.79;62.18;102451.38;2093573;28;47413;-57
2022/01/20 05:21:15;;;;;;;;;10.50;8.50;;;;;8.79;62.11;102451.38;2095853;28;47615;-56
2022/01/20 05:22:15;;;;;;;;;10.50;9.00;;;;;8.78;62.02;102448.72;2095876;28;45224;-57
2022/01/20 05:23:16;;;;;;;;;7.75;6.50;;;;;8.78;62.21;102448.72;2092845;28;47937;-56
2022/01/20 05:24:16;;;;;;;;;10.00;8.75;;;;;8.77;62.06;102439.88;2095767;28;47512;-55
2022/01/20 05:25:17;;;;;;;;;9.00;7.00;;;;;8.77;62.06;102447.81;2096031;28;47151;-55
2022/01/20 05:26:17;;;;;;;;;11.25;9.75;;;;;8.77;62.07;102453.13;2095783;28;47292;-55
2022/01/20 05:27:17;;;;;;;;;9.25;8.25;;;;;8.77;61.83;102450.47;2090014;28;47611;-53
2022/01/20 05:28:18;;;;;;;;;10.00;9.75;;;;;8.77;61.85;102453.13;2091846;28;47384;-54
2022/01/20 05:29:20;;;;;;;;;11.50;10.50;;;;;8.77;61.93;102454.88;2091009;28;47490;-57
2022/01/20 05:30:21;;;;;;;;;11.00;10.80;;;;;8.77;61.94;102453.13;2087433;28;47065;-57
2022/01/20 05:31:21;;;;;;;;;11.00;10.75;;;;;8.77;61.95;102453.13;2090588;28;47319;-56
2022/01/20 05:32:23;;;;;;;;;9.25;8.50;;;;;8.76;62.19;102453.94;2088336;28;47807;-56
2022/01/20 05:33:23;;;;;;;;;13.40;10.40;;;;;8.76;62.02;102455.72;2093257;28;47345;-55
2022/01/20 05:34:23;;;;;;;;;9.00;9.00;;;;;8.76;61.86;102453.94;2093475;28;47749;-56
2022/01/20 05:35:24;;;;;;;;;11.75;10.00;;;;;8.76;62.02;102453.94;2095466;28;47444;-57
2022/01/20 05:36:24;;;;;;;;;11.25;9.75;;;;;8.76;62.15;102459.25;2087277;28;47459;-55
2022/01/20 05:37:25;;;;;;;;;9.75;9.75;;;;;8.76;62.12;102463.66;2088027;28;46010;-55
2022/01/20 05:38:25;;;;;;;;;10.50;10.25;;;;;8.75;61.94;102462.75;2094224;28;47037;-57
2022/01/20 05:39:26;;;;;;;;;10.00;9.00;;;;;8.75;62.10;102468.06;2095806;28;47291;-57
2022/01/20 05:40:26;;;;;;;;;10.50;10.50;;;;;8.76;61.93;102466.31;2088030;28;47823;-58